createdAt,value
2022-12-09T00:00:44.021Z,100570.50
2022-12-09T00:03:10.763Z,100570.16
2022-12-09T00:05:40.165Z,100571.31
2022-12-09T00:08:07.087Z,100573.97
2022-12-09T00:10:33.936Z,100581.84
2022-12-09T00:13:00.442Z,100576.00
2022-12-09T00:15:27.236Z,100578.00
2022-12-09T00:17:53.960Z,100584.03
2022-12-09T00:20:20.504Z,100581.50
2022-12-09T00:22:47.026Z,100580.03
2022-12-09T00:25:13.620Z,100572.81
2022-12-09T00:27:40.098Z,100578.50
2022-12-09T00:30:08.027Z,100587.19
2022-12-09T00:32:34.905Z,100577.00
2022-12-09T00:35:01.971Z,100588.53
2022-12-09T00:37:28.729Z,100592.03
2022-12-09T00:39:55.437Z,100586.84
2022-12-09T00:42:21.934Z,100587.53
2022-12-09T00:44:48.711Z,100593.88
2022-12-09T00:47:15.341Z,100586.19
2022-12-09T00:49:42.336Z,100593.22
2022-12-09T00:52:09.082Z,100597.41
2022-12-09T00:54:35.736Z,100599.38
2022-12-09T00:57:03.022Z,100601.06
2022-12-09T00:59:29.688Z,100604.91
2022-12-09T01:01:56.320Z,100601.38
2022-12-09T01:04:24.922Z,100595.72
2022-12-09T01:06:52.890Z,100595.88
2022-12-09T01:09:19.647Z,100601.88
2022-12-09T01:11:46.477Z,100605.25
2022-12-09T01:14:13.304Z,100604.25
2022-12-09T01:16:40.155Z,100604.09
2022-12-09T01:19:09.469Z,100602.91
2022-12-09T01:21:36.126Z,100606.13
2022-12-09T01:24:08.099Z,100612.28
2022-12-09T01:26:34.985Z,100612.97
2022-12-09T01:29:01.973Z,100612.81
2022-12-09T01:31:30.090Z,100608.28
2022-12-09T01:33:57.528Z,100618.50
2022-12-09T01:36:27.410Z,100616.00
2022-12-09T01:38:54.158Z,100620.31
2022-12-09T01:41:22.041Z,100611.97
2022-12-09T01:44:27.783Z,100611.00
2022-12-09T01:46:59.497Z,100605.63
2022-12-09T01:49:41.901Z,100613.31
2022-12-09T01:52:21.347Z,100602.63
2022-12-09T01:54:50.152Z,100610.31
2022-12-09T01:57:17.188Z,100601.28
2022-12-09T01:59:45.401Z,100604.66
2022-12-09T02:02:17.152Z,100597.44
2022-12-09T02:04:47.935Z,100593.44
2022-12-09T02:07:14.671Z,100596.09
2022-12-09T02:09:42.436Z,100588.25
2022-12-09T02:12:45.098Z,100594.28
2022-12-09T02:15:18.580Z,100585.56
2022-12-09T02:17:51.697Z,100589.94
2022-12-09T02:20:39.118Z,100592.13
2022-12-09T02:23:40.124Z,100590.63
2022-12-09T02:26:18.525Z,100583.75
2022-12-09T02:29:08.538Z,100577.22
2022-12-09T02:32:14.067Z,100579.25
2022-12-09T02:34:45.571Z,100585.59
2022-12-09T02:37:37.827Z,100577.72
2022-12-09T02:40:17.874Z,100574.88
2022-12-09T02:42:47.052Z,100572.03
2022-12-09T02:45:15.332Z,100578.25
2022-12-09T02:47:47.240Z,100575.56
2022-12-09T02:50:17.985Z,100569.53
2022-12-09T02:52:45.686Z,100579.06
2022-12-09T02:55:15.406Z,100571.53
2022-12-09T02:57:42.481Z,100580.22
2022-12-09T03:00:10.207Z,100566.19
2022-12-09T03:02:43.830Z,100563.34
2022-12-09T03:05:39.553Z,100565.66
2022-12-09T03:08:50.898Z,100565.84
2022-12-09T03:11:20.257Z,100562.66
2022-12-09T03:14:15.956Z,100564.50
2022-12-09T03:17:02.036Z,100551.94
2022-12-09T03:19:37.288Z,100560.66
2022-12-09T03:22:09.171Z,100552.81
2022-12-09T03:25:09.656Z,100559.00
2022-12-09T03:27:46.163Z,100558.16
2022-12-09T03:30:14.167Z,100558.16
2022-12-09T03:32:44.495Z,100564.16
2022-12-09T03:35:20.089Z,100559.84
2022-12-09T03:37:50.172Z,100556.66
2022-12-09T03:40:21.873Z,100557.00
2022-12-09T03:43:11.107Z,100554.50
2022-12-09T03:45:38.073Z,100551.13
2022-12-09T03:48:04.867Z,100549.63
2022-12-09T03:50:37.194Z,100553.47
2022-12-09T03:53:18.551Z,100544.13
2022-12-09T03:56:01.337Z,100539.41
2022-12-09T03:58:31.524Z,100542.59
2022-12-09T04:00:58.451Z,100540.44
2022-12-09T04:03:25.419Z,100544.63
2022-12-09T04:05:52.373Z,100545.78
2022-12-09T04:08:19.135Z,100547.09
2022-12-09T04:10:45.934Z,100538.44
2022-12-09T04:13:12.471Z,100535.06
2022-12-09T04:15:39.245Z,100530.22
2022-12-09T04:18:05.931Z,100530.56
2022-12-09T04:20:32.751Z,100541.41
2022-12-09T04:22:59.556Z,100533.41
2022-12-09T04:25:26.237Z,100541.41
2022-12-09T04:27:52.894Z,100542.44
2022-12-09T04:30:19.778Z,100544.44
2022-12-09T04:32:46.750Z,100546.44
2022-12-09T04:35:13.731Z,100551.31
2022-12-09T04:37:40.404Z,100549.28
2022-12-09T04:40:08.226Z,100558.31
2022-12-09T04:42:35.378Z,100547.94
2022-12-09T04:45:02.290Z,100554.13
2022-12-09T04:47:29.005Z,100551.63
2022-12-09T04:49:56.382Z,100544.59
2022-12-09T04:52:22.920Z,100550.44
2022-12-09T04:54:51.066Z,100541.44
2022-12-09T04:57:18.706Z,100536.09
2022-12-09T04:59:45.836Z,100534.75
2022-12-09T05:02:12.792Z,100547.44
2022-12-09T05:04:39.672Z,100543.94
2022-12-09T05:07:06.968Z,100535.06
2022-12-09T05:09:34.441Z,100543.09
2022-12-09T05:12:01.113Z,100545.09
2022-12-09T05:14:28.075Z,100538.91
2022-12-09T05:16:54.759Z,100538.75
2022-12-09T05:19:21.891Z,100549.94
2022-12-09T05:21:48.664Z,100537.41
2022-12-09T05:24:15.553Z,100539.09
2022-12-09T05:26:42.307Z,100554.63
2022-12-09T05:29:09.346Z,100557.13
2022-12-09T05:31:36.437Z,100553.81
2022-12-09T05:34:03.382Z,100546.44
2022-12-09T05:36:30.469Z,100547.28
2022-12-09T05:38:57.269Z,100539.09
2022-12-09T05:41:25.213Z,100543.28
2022-12-09T05:43:52.652Z,100550.47
2022-12-09T05:46:20.627Z,100545.25
2022-12-09T05:48:47.785Z,100548.28
2022-12-09T05:51:23.275Z,100545.13
2022-12-09T05:53:50.380Z,100545.63
2022-12-09T05:56:22.480Z,100540.78
2022-12-09T05:58:50.346Z,100535.75
2022-12-09T06:01:17.604Z,100542.09
2022-12-09T06:03:48.342Z,100545.44
2022-12-09T06:06:17.806Z,100537.41
2022-12-09T06:08:45.302Z,100541.59
2022-12-09T06:11:18.827Z,100535.06
2022-12-09T06:13:47.164Z,100545.44
2022-12-09T06:16:15.431Z,100532.22
2022-12-09T06:18:42.669Z,100539.94
2022-12-09T06:21:11.461Z,100541.44
2022-12-09T06:23:41.433Z,100538.59
2022-12-09T06:26:16.116Z,100540.25
2022-12-09T06:28:42.896Z,100548.44
2022-12-09T06:31:09.557Z,100545.63
2022-12-09T06:33:54.095Z,100541.75
2022-12-09T06:36:22.697Z,100544.09
2022-12-09T06:38:49.578Z,100544.41
2022-12-09T06:41:16.405Z,100546.75
2022-12-09T06:43:43.332Z,100552.44
2022-12-09T06:46:19.393Z,100550.78
2022-12-09T06:48:47.268Z,100538.91
2022-12-09T06:51:15.031Z,100547.06
2022-12-09T06:53:41.702Z,100543.22
2022-12-09T06:56:12.527Z,100544.91
2022-12-09T06:58:41.309Z,100536.69
2022-12-09T07:01:20.257Z,100543.72
2022-12-09T07:03:50.291Z,100542.03
2022-12-09T07:06:31.085Z,100549.72
2022-12-09T07:09:01.207Z,100544.38
2022-12-09T07:11:28.722Z,100546.41
2022-12-09T07:13:55.727Z,100539.00
2022-12-09T07:16:23.135Z,100542.19
2022-12-09T07:18:50.392Z,100543.38
2022-12-09T07:21:19.444Z,100543.53
2022-12-09T07:23:46.129Z,100541.03
2022-12-09T07:26:13.174Z,100537.88
2022-12-09T07:28:44.422Z,100545.75
2022-12-09T07:31:22.249Z,100535.88
2022-12-09T07:33:49.999Z,100548.44
2022-12-09T07:36:20.939Z,100543.41
2022-12-09T07:38:48.249Z,100548.44
2022-12-09T07:41:18.558Z,100551.13
2022-12-09T07:43:46.254Z,100549.13
2022-12-09T07:46:15.716Z,100560.31
2022-12-09T07:48:42.806Z,100559.84
2022-12-09T07:51:10.266Z,100560.66
2022-12-09T07:53:37.977Z,100558.47
2022-12-09T07:56:06.800Z,100560.50
2022-12-09T07:58:34.327Z,100561.50
2022-12-09T08:01:13.394Z,100575.34
2022-12-09T08:03:42.397Z,100582.03
2022-12-09T08:06:14.030Z,100579.19
2022-12-09T08:08:41.172Z,100585.53
2022-12-09T08:11:09.614Z,100580.31
2022-12-09T08:13:37.297Z,100588.47
2022-12-09T08:16:08.764Z,100587.81
2022-12-09T08:18:37.388Z,100587.13
2022-12-09T08:21:09.662Z,100583.13
2022-12-09T08:23:37.422Z,100575.44
2022-12-09T08:26:04.750Z,100580.09
2022-12-09T08:28:32.335Z,100583.09
2022-12-09T08:30:59.551Z,100584.72
2022-12-09T08:33:26.965Z,100580.72
2022-12-09T08:35:53.628Z,100583.38
2022-12-09T08:38:20.429Z,100580.56
2022-12-09T08:40:47.009Z,100587.91
2022-12-09T08:43:13.976Z,100580.38
2022-12-09T08:45:41.868Z,100590.59
2022-12-09T08:48:09.618Z,100578.72
2022-12-09T08:50:36.893Z,100577.56
2022-12-09T08:53:03.875Z,100577.94
2022-12-09T08:55:30.613Z,100574.91
2022-12-09T08:57:57.384Z,100577.75
2022-12-09T09:00:24.275Z,100575.41
2022-12-09T09:02:51.113Z,100573.91
2022-12-09T09:05:18.692Z,100578.91
2022-12-09T09:07:45.755Z,100583.38
2022-12-09T09:10:13.388Z,100582.91
2022-12-09T09:12:43.576Z,100577.88
2022-12-09T09:15:11.641Z,100586.75
2022-12-09T09:17:38.606Z,100582.91
2022-12-09T09:20:06.826Z,100588.28
2022-12-09T09:22:35.295Z,100584.13
2022-12-09T09:25:02.356Z,100586.47
2022-12-09T09:27:29.215Z,100586.00
2022-12-09T09:29:56.277Z,100581.13
2022-12-09T09:32:23.184Z,100585.84
2022-12-09T09:34:50.869Z,100585.19
2022-12-09T09:37:17.748Z,100586.72
2022-12-09T09:39:44.767Z,100587.06
2022-12-09T09:42:23.469Z,100592.91
2022-12-09T09:44:53.558Z,100597.94
2022-12-09T09:47:51.018Z,100589.94
2022-12-09T09:50:38.112Z,100588.91
2022-12-09T09:53:20.984Z,100587.09
2022-12-09T09:56:02.759Z,100588.41
2022-12-09T09:59:05.876Z,100582.72
2022-12-09T10:01:36.023Z,100586.91
2022-12-09T10:04:22.773Z,100586.59
2022-12-09T10:07:08.298Z,100580.91
2022-12-09T10:09:44.459Z,100589.59
2022-12-09T10:12:29.921Z,100578.22
2022-12-09T10:15:00.909Z,100580.59
2022-12-09T10:17:40.125Z,100571.69
2022-12-09T10:20:13.796Z,100575.22
2022-12-09T10:22:52.310Z,100578.38
2022-12-09T10:25:50.878Z,100575.22
2022-12-09T10:28:27.072Z,100573.22
2022-12-09T10:30:55.594Z,100571.88
2022-12-09T10:33:33.202Z,100566.53
2022-12-09T10:36:00.138Z,100572.53
2022-12-09T10:38:28.864Z,100568.69
2022-12-09T10:41:16.572Z,100572.38
2022-12-09T10:43:44.127Z,100563.16
2022-12-09T10:46:21.898Z,100576.88
2022-12-09T10:48:50.181Z,100563.00
2022-12-09T10:51:37.433Z,100567.81
2022-12-09T10:54:15.314Z,100562.28
2022-12-09T10:57:14.425Z,100566.16
2022-12-09T10:59:56.130Z,100559.63
2022-12-09T11:02:23.789Z,100562.63
2022-12-09T11:04:51.259Z,100560.91
2022-12-09T11:07:21.148Z,100563.09
2022-12-09T11:10:07.026Z,100565.59
2022-12-09T11:12:41.254Z,100556.38
2022-12-09T11:15:11.857Z,100562.91
2022-12-09T11:17:55.929Z,100560.22
2022-12-09T11:20:27.615Z,100563.22
2022-12-09T11:23:02.538Z,100555.50
2022-12-09T11:25:35.374Z,100564.31
2022-12-09T11:28:08.728Z,100554.94
2022-12-09T11:30:57.561Z,100559.13
2022-12-09T11:33:28.142Z,100561.63
2022-12-09T11:36:22.676Z,100561.63
2022-12-09T11:38:53.175Z,100550.03
2022-12-09T11:41:44.100Z,100556.03
2022-12-09T11:44:29.810Z,100553.03
2022-12-09T11:47:00.294Z,100550.97
2022-12-09T11:49:29.576Z,100549.16
2022-12-09T11:52:23.460Z,100557.84
2022-12-09T11:54:54.604Z,100551.28
2022-12-09T11:57:44.646Z,100547.78
2022-12-09T12:00:33.937Z,100545.41
2022-12-09T12:03:13.500Z,100543.56
2022-12-09T12:05:47.167Z,100550.59
2022-12-09T12:08:16.791Z,100551.09
2022-12-09T12:11:13.415Z,100542.38
2022-12-09T12:14:16.889Z,100547.72
2022-12-09T12:16:43.352Z,100538.69
2022-12-09T12:19:12.774Z,100545.72
2022-12-09T12:21:54.210Z,100540.53
2022-12-09T12:24:47.660Z,100530.44
2022-12-09T12:27:26.696Z,100536.47
2022-12-09T12:29:59.054Z,100534.47
2022-12-09T12:33:59.894Z,100538.66
2022-12-09T12:35:56.168Z,100534.03
2022-12-09T12:38:41.293Z,100541.28
2022-12-09T12:41:17.230Z,100544.63
2022-12-09T12:44:13.376Z,100540.09
2022-12-09T12:46:51.758Z,100535.38
2022-12-09T12:49:34.741Z,100533.72
2022-12-09T12:52:55.524Z,100525.84
2022-12-09T12:55:34.904Z,100524.66
2022-12-09T12:58:19.563Z,100529.16
2022-12-09T13:01:00.693Z,100525.47
2022-12-09T13:03:39.313Z,100520.97
2022-12-09T13:06:11.462Z,100524.66
2022-12-09T13:08:40.872Z,100522.78
2022-12-09T13:11:30.725Z,100521.78
2022-12-09T13:14:03.438Z,100523.47
2022-12-09T13:16:34.709Z,100528.53
2022-12-09T13:19:28.332Z,100527.84
2022-12-09T13:21:56.012Z,100522.00
2022-12-09T13:24:33.055Z,100525.69
2022-12-09T13:27:01.780Z,100530.22
2022-12-09T13:29:44.197Z,100533.59
2022-12-09T13:32:10.657Z,100533.94
2022-12-09T13:34:42.503Z,100534.41
2022-12-09T13:37:31.880Z,100533.09
2022-12-09T13:39:58.806Z,100524.38
2022-12-09T13:42:46.952Z,100529.75
2022-12-09T13:45:33.387Z,100529.56
2022-12-09T13:48:20.486Z,100525.25
2022-12-09T13:50:51.336Z,100525.25
2022-12-09T13:53:20.884Z,100526.75
2022-12-09T13:55:49.966Z,100523.44
2022-12-09T13:58:31.523Z,100525.81
2022-12-09T14:01:34.287Z,100521.28
2022-12-09T14:04:04.234Z,100518.59
2022-12-09T14:06:32.817Z,100520.47
2022-12-09T14:09:20.564Z,100518.78
2022-12-09T14:11:49.817Z,100518.28
2022-12-09T14:14:25.173Z,100517.81
2022-12-09T14:17:00.362Z,100522.66
2022-12-09T14:19:31.518Z,100522.38
2022-12-09T14:22:20.230Z,100526.97
2022-12-09T14:24:53.523Z,100524.59
2022-12-09T14:27:22.428Z,100521.78
2022-12-09T14:29:55.589Z,100523.34
2022-12-09T14:32:29.835Z,100522.72
2022-12-09T14:35:11.433Z,100525.06
2022-12-09T14:37:51.745Z,100525.56
2022-12-09T14:40:58.875Z,100535.31
2022-12-09T14:43:53.197Z,100532.84
2022-12-09T14:46:24.527Z,100533.88
2022-12-09T14:48:55.585Z,100534.53
2022-12-09T14:51:24.209Z,100530.53
2022-12-09T14:53:57.556Z,100536.03
2022-12-09T14:56:26.045Z,100531.34
2022-12-09T14:59:04.618Z,100532.72
2022-12-09T15:01:58.748Z,100538.25
2022-12-09T15:04:34.557Z,100534.72
2022-12-09T15:07:17.626Z,100539.06
2022-12-09T15:09:58.764Z,100537.75
2022-12-09T15:12:30.620Z,100539.41
2022-12-09T15:15:04.849Z,100544.94
2022-12-09T15:17:40.136Z,100543.28
2022-12-09T15:20:07.815Z,100543.28
2022-12-09T15:22:34.517Z,100547.78
2022-12-09T15:25:03.071Z,100544.44
2022-12-09T15:27:30.017Z,100550.94
2022-12-09T15:29:56.591Z,100552.97
2022-12-09T15:32:28.995Z,100550.78
2022-12-09T15:35:14.550Z,100549.75
2022-12-09T15:37:41.453Z,100543.56
2022-12-09T15:40:12.753Z,100552.41
2022-12-09T15:42:44.250Z,100550.75
2022-12-09T15:45:14.052Z,100551.41
2022-12-09T15:47:53.067Z,100551.41
2022-12-09T15:50:34.858Z,100556.09
2022-12-09T15:53:23.156Z,100550.22
2022-12-09T15:55:54.658Z,100545.00
2022-12-09T15:58:30.223Z,100554.31
2022-12-09T16:00:57.215Z,100543.59
2022-12-09T16:03:30.992Z,100542.94
2022-12-09T16:06:06.780Z,100552.94
2022-12-09T16:08:44.771Z,100557.09
2022-12-09T16:11:12.299Z,100555.72
2022-12-09T16:13:59.509Z,100557.38
2022-12-09T16:16:35.823Z,100553.19
2022-12-09T16:19:02.474Z,100561.38
2022-12-09T16:21:36.058Z,100561.66
2022-12-09T16:24:11.626Z,100563.81
2022-12-09T16:26:44.291Z,100567.50
2022-12-09T16:29:26.733Z,100563.19
2022-12-09T16:32:19.272Z,100564.88
2022-12-09T16:34:48.472Z,100561.81
2022-12-09T16:37:36.334Z,100560.38
2022-12-09T16:40:25.547Z,100557.03
2022-12-09T16:43:17.701Z,100561.16
2022-12-09T16:45:52.082Z,100570.31
2022-12-09T16:48:20.637Z,100570.94
2022-12-09T16:51:09.481Z,100566.47
2022-12-09T16:53:43.925Z,100569.59
2022-12-09T16:56:18.848Z,100576.59
2022-12-09T16:58:45.560Z,100573.00
2022-12-09T17:01:17.342Z,100580.03
2022-12-09T17:03:57.937Z,100576.97
2022-12-09T17:06:24.818Z,100570.53
2022-12-09T17:08:51.388Z,100583.34
2022-12-09T17:11:18.868Z,100576.41
2022-12-09T17:13:45.394Z,100577.84
2022-12-09T17:16:11.997Z,100579.00
2022-12-09T17:18:39.583Z,100578.56
2022-12-09T17:21:09.507Z,100576.19
2022-12-09T17:23:39.973Z,100579.00
2022-12-09T17:26:09.317Z,100576.66
2022-12-09T17:28:36.489Z,100581.31
2022-12-09T17:31:11.240Z,100580.84
2022-12-09T17:33:38.450Z,100575.47
2022-12-09T17:36:05.706Z,100581.78
2022-12-09T17:38:32.235Z,100580.91
2022-12-09T17:41:03.897Z,100586.69
2022-12-09T17:43:30.562Z,100585.09
2022-12-09T17:46:05.259Z,100589.34
2022-12-09T17:48:33.054Z,100592.03
2022-12-09T17:51:04.596Z,100598.91
2022-12-09T17:53:31.164Z,100587.56
2022-12-09T17:55:57.663Z,100598.78
2022-12-09T17:58:24.241Z,100607.66
2022-12-09T18:00:50.891Z,100606.84
2022-12-09T18:03:27.411Z,100607.69
2022-12-09T18:06:00.261Z,100607.69
2022-12-09T18:08:29.646Z,100616.88
2022-12-09T18:10:56.242Z,100612.69
2022-12-09T18:13:23.038Z,100615.19
2022-12-09T18:15:54.117Z,100620.38
2022-12-09T18:18:21.123Z,100631.94
2022-12-09T18:20:47.696Z,100628.59
2022-12-09T18:23:14.289Z,100626.72
2022-12-09T18:25:41.308Z,100622.34
2022-12-09T18:28:08.941Z,100639.75
2022-12-09T18:30:38.273Z,100628.88
2022-12-09T18:33:04.902Z,100631.69
2022-12-09T18:35:31.573Z,100634.00
2022-12-09T18:38:06.000Z,100634.50
2022-12-09T18:41:00.132Z,100644.91
2022-12-09T18:43:41.457Z,100643.38
2022-12-09T18:46:11.564Z,100639.34
2022-12-09T18:48:38.769Z,100644.19
2022-12-09T18:51:08.724Z,100641.38
2022-12-09T18:53:35.293Z,100643.72
2022-12-09T18:56:05.666Z,100646.06
2022-12-09T18:58:57.880Z,100642.50
2022-12-09T19:01:26.290Z,100651.38
2022-12-09T19:03:54.882Z,100647.16
2022-12-09T19:06:22.979Z,100651.16
2022-12-09T19:08:53.867Z,100653.50
2022-12-09T19:11:26.383Z,100648.97
2022-12-09T19:13:53.985Z,100656.69
2022-12-09T19:16:24.591Z,100649.44
2022-12-09T19:18:53.626Z,100655.63
2022-12-09T19:21:22.071Z,100662.88
2022-12-09T19:23:49.301Z,100663.72
2022-12-09T19:26:19.798Z,100665.75
2022-12-09T19:28:54.822Z,100658.41
2022-12-09T19:31:39.673Z,100665.41
2022-12-09T19:34:10.243Z,100666.78
2022-12-09T19:36:37.052Z,100673.31
2022-12-09T19:39:06.270Z,100675.50
2022-12-09T19:41:32.765Z,100683.09
2022-12-09T19:44:00.836Z,100680.22
2022-12-09T19:46:28.678Z,100690.59
2022-12-09T19:48:56.583Z,100688.44
2022-12-09T19:51:24.329Z,100688.63
2022-12-09T19:53:53.735Z,100696.00
2022-12-09T19:56:21.545Z,100694.00
2022-12-09T19:58:48.480Z,100691.81
2022-12-09T20:01:25.199Z,100696.84
2022-12-09T20:03:57.330Z,100696.69
2022-12-09T20:06:24.206Z,100702.38
2022-12-09T20:08:50.789Z,100695.69
2022-12-09T20:11:19.723Z,100701.06
2022-12-09T20:13:47.068Z,100696.50
2022-12-09T20:16:16.680Z,100700.88
2022-12-09T20:18:44.253Z,100703.38
2022-12-09T20:21:13.729Z,100705.75
2022-12-09T20:23:41.746Z,100697.53
2022-12-09T20:26:11.440Z,100695.53
2022-12-09T20:28:40.741Z,100714.09
2022-12-09T20:31:13.466Z,100703.22
2022-12-09T20:33:42.117Z,100705.56
2022-12-09T20:36:10.656Z,100700.38
2022-12-09T20:38:38.282Z,100701.72
2022-12-09T20:41:11.349Z,100703.38
2022-12-09T20:43:39.966Z,100710.94
2022-12-09T20:46:15.478Z,100702.91
2022-12-09T20:48:42.729Z,100710.09
2022-12-09T20:51:24.788Z,100716.78
2022-12-09T20:53:52.811Z,100714.44
2022-12-09T20:56:21.928Z,100725.34
2022-12-09T20:58:51.498Z,100711.44
2022-12-09T21:01:19.790Z,100722.84
2022-12-09T21:04:20.625Z,100720.47
2022-12-09T21:06:47.767Z,100718.97
2022-12-09T21:09:18.939Z,100727.00
2022-12-09T21:11:47.342Z,100723.34
2022-12-09T21:14:18.133Z,100729.69
2022-12-09T21:16:47.948Z,100735.72
2022-12-09T21:19:16.041Z,100732.22
2022-12-09T21:21:48.771Z,100722.00
2022-12-09T21:24:16.141Z,100739.59
2022-12-09T21:26:43.596Z,100733.69
2022-12-09T21:29:11.845Z,100735.06
2022-12-09T21:31:41.078Z,100733.91
2022-12-09T21:34:09.864Z,100731.22
2022-12-09T21:36:40.775Z,100726.69
2022-12-09T21:39:07.394Z,100724.16
2022-12-09T21:41:36.406Z,100724.84
2022-12-09T21:44:04.293Z,100731.56
2022-12-09T21:46:33.202Z,100730.88
2022-12-09T21:49:03.999Z,100737.22
2022-12-09T21:51:32.218Z,100740.94
2022-12-09T21:53:59.175Z,100738.25
2022-12-09T21:56:30.634Z,100735.72
2022-12-09T21:58:58.845Z,100745.25
2022-12-09T22:01:30.015Z,100735.22
2022-12-09T22:03:58.170Z,100747.28
2022-12-09T22:06:24.741Z,100745.59
2022-12-09T22:08:51.858Z,100746.47
2022-12-09T22:11:21.595Z,100742.59
2022-12-09T22:13:48.283Z,100740.56
2022-12-09T22:16:21.523Z,100740.25
2022-12-09T22:18:49.120Z,100739.72
2022-12-09T22:21:25.484Z,100742.59
2022-12-09T22:23:57.555Z,100748.47
2022-12-09T22:26:25.433Z,100744.28
2022-12-09T22:28:52.565Z,100743.09
2022-12-09T22:31:25.798Z,100746.25
2022-12-09T22:33:54.154Z,100751.63
2022-12-09T22:36:21.919Z,100754.00
2022-12-09T22:38:48.985Z,100758.19
2022-12-09T22:41:19.955Z,100759.00
2022-12-09T22:43:48.843Z,100763.00
2022-12-09T22:46:18.457Z,100751.63
2022-12-09T22:48:45.404Z,100757.31
2022-12-09T22:51:17.987Z,100754.66
2022-12-09T22:53:45.321Z,100758.00
2022-12-09T22:56:12.623Z,100746.94
2022-12-09T22:58:40.196Z,100752.31
2022-12-09T23:01:18.563Z,100758.34
2022-12-09T23:03:45.399Z,100757.81
2022-12-09T23:06:12.872Z,100752.47
2022-12-09T23:08:41.114Z,100750.63
2022-12-09T23:11:11.506Z,100752.00
2022-12-09T23:13:41.208Z,100752.00
2022-12-09T23:16:09.274Z,100753.31
2022-12-09T23:18:36.312Z,100753.81
2022-12-09T23:21:15.429Z,100756.66
2022-12-09T23:23:42.616Z,100750.63
2022-12-09T23:26:11.957Z,100746.78
2022-12-09T23:28:40.578Z,100745.94
2022-12-09T23:31:10.102Z,100750.28
2022-12-09T23:33:38.724Z,100746.09
2022-12-09T23:36:07.418Z,100745.94
2022-12-09T23:38:33.988Z,100748.63
2022-12-09T23:41:00.589Z,100747.94
2022-12-09T23:43:30.261Z,100753.66
2022-12-09T23:46:00.767Z,100752.66
2022-12-09T23:48:27.541Z,100758.00
2022-12-09T23:50:54.927Z,100751.97
2022-12-09T23:53:21.845Z,100757.66
2022-12-09T23:55:48.925Z,100757.31
2022-12-09T23:58:15.786Z,100762.84
